createdAt,value
2023-02-27T00:01:09.604Z,65.34
2023-02-27T00:04:02.051Z,64.89
2023-02-27T00:06:51.304Z,64.88
2023-02-27T00:09:42.882Z,64.92
2023-02-27T00:12:37.710Z,64.64
2023-02-27T00:15:31.014Z,64.47
2023-02-27T00:18:24.161Z,64.38
2023-02-27T00:21:13.398Z,63.59
2023-02-27T00:24:02.564Z,63.69
2023-02-27T00:26:53.963Z,62.95
2023-02-27T00:29:49.762Z,62.43
2023-02-27T00:32:39.462Z,62.54
2023-02-27T00:36:02.039Z,62.20
2023-02-27T00:38:51.443Z,61.25
2023-02-27T00:41:40.658Z,61.11
2023-02-27T00:44:30.283Z,60.87
2023-02-27T00:47:19.664Z,60.84
2023-02-27T00:50:10.800Z,60.92
2023-02-27T00:53:01.582Z,60.37
2023-02-27T00:55:51.012Z,60.79
2023-02-27T00:58:40.210Z,61.00
2023-02-27T01:01:31.192Z,60.91
2023-02-27T01:04:20.729Z,61.34
2023-02-27T01:07:10.589Z,61.62
2023-02-27T01:10:11.872Z,61.98
2023-02-27T01:13:01.582Z,61.88
2023-02-27T01:15:51.317Z,61.64
2023-02-27T01:18:40.782Z,61.73
2023-02-27T01:21:29.936Z,62.08
2023-02-27T01:24:20.000Z,62.25
2023-02-27T01:27:12.109Z,62.32
2023-02-27T01:30:01.422Z,62.02
2023-02-27T01:32:50.576Z,62.04
2023-02-27T01:35:40.677Z,62.31
2023-02-27T01:38:29.847Z,62.77
2023-02-27T01:41:19.530Z,62.54
2023-02-27T01:44:13.663Z,62.38
2023-02-27T01:47:03.136Z,62.20
2023-02-27T01:49:54.114Z,62.46
2023-02-27T01:52:45.466Z,62.11
2023-02-27T01:55:39.763Z,62.23
2023-02-27T01:58:29.900Z,61.74
2023-02-27T02:01:21.867Z,62.13
2023-02-27T02:04:21.008Z,62.64
2023-02-27T02:07:16.773Z,62.54
2023-02-27T02:10:08.031Z,62.84
2023-02-27T02:12:57.678Z,62.96
2023-02-27T02:16:13.857Z,63.12
2023-02-27T02:19:54.494Z,63.72
2023-02-27T02:23:52.147Z,64.65
2023-02-27T02:27:04.937Z,65.03
2023-02-27T02:30:54.027Z,65.53
2023-02-27T02:34:19.042Z,65.15
2023-02-27T02:37:59.293Z,65.59
2023-02-27T02:40:56.021Z,65.26
2023-02-27T02:44:00.887Z,65.53
2023-02-27T02:46:57.914Z,64.99
2023-02-27T02:49:58.261Z,65.25
2023-02-27T02:53:02.669Z,64.79
2023-02-27T02:56:01.555Z,65.49
2023-02-27T02:59:00.825Z,65.59
2023-02-27T03:01:55.218Z,66.13
2023-02-27T03:04:50.602Z,65.88
2023-02-27T03:07:45.584Z,65.67
2023-02-27T03:10:39.117Z,66.01
2023-02-27T03:13:35.944Z,66.29
2023-02-27T03:16:31.207Z,66.01
2023-02-27T03:19:27.013Z,66.21
2023-02-27T03:22:23.285Z,66.41
2023-02-27T03:25:15.413Z,66.24
2023-02-27T03:28:15.501Z,66.36
2023-02-27T03:31:15.256Z,66.03
2023-02-27T03:34:14.541Z,65.66
2023-02-27T03:37:14.524Z,65.78
2023-02-27T03:40:18.631Z,65.58
2023-02-27T03:43:18.558Z,65.49
2023-02-27T03:46:19.589Z,65.13
2023-02-27T03:49:09.490Z,65.12
2023-02-27T03:51:59.283Z,64.62
2023-02-27T03:54:56.036Z,64.18
2023-02-27T03:57:47.869Z,63.26
2023-02-27T04:00:37.513Z,62.70
2023-02-27T04:03:29.049Z,62.42
2023-02-27T04:06:36.140Z,61.73
2023-02-27T04:09:44.467Z,61.16
2023-02-27T04:13:38.725Z,60.79
2023-02-27T04:17:05.373Z,61.15
2023-02-27T04:20:24.029Z,61.08
2023-02-27T04:23:20.780Z,61.18
2023-02-27T04:26:22.777Z,61.10
2023-02-27T04:29:18.698Z,61.06
2023-02-27T04:32:17.834Z,60.74
2023-02-27T04:35:16.942Z,61.09
2023-02-27T04:38:15.465Z,61.06
2023-02-27T04:41:10.104Z,60.79
2023-02-27T04:44:00.432Z,61.20
2023-02-27T04:46:51.806Z,60.96
2023-02-27T04:49:47.050Z,61.24
2023-02-27T04:52:42.779Z,61.07
2023-02-27T04:55:36.512Z,61.24
2023-02-27T04:58:30.874Z,61.11
2023-02-27T05:01:26.792Z,61.54
2023-02-27T05:04:21.130Z,61.05
2023-02-27T05:07:15.968Z,61.23
2023-02-27T05:10:13.799Z,61.69
2023-02-27T05:13:11.513Z,61.07
2023-02-27T05:16:09.591Z,61.36
2023-02-27T05:18:58.818Z,61.78
2023-02-27T05:21:57.133Z,62.06
2023-02-27T05:24:55.108Z,62.01
2023-02-27T05:27:51.285Z,61.85
2023-02-27T05:30:46.956Z,61.78
2023-02-27T05:33:42.013Z,62.09
2023-02-27T05:36:36.132Z,62.10
2023-02-27T05:39:30.052Z,61.66
2023-02-27T05:42:27.068Z,61.29
2023-02-27T05:45:23.708Z,61.08
2023-02-27T05:48:19.858Z,60.71
2023-02-27T05:51:12.430Z,61.08
2023-02-27T05:54:08.345Z,61.02
2023-02-27T05:57:00.968Z,60.01
2023-02-27T06:00:00.766Z,59.88
2023-02-27T06:02:51.459Z,60.06
2023-02-27T06:05:43.486Z,59.53
2023-02-27T06:08:32.764Z,59.68
2023-02-27T06:11:21.979Z,59.56
2023-02-27T06:14:11.134Z,59.75
2023-02-27T06:17:00.481Z,59.34
2023-02-27T06:19:51.176Z,59.15
2023-02-27T06:22:50.280Z,59.08
2023-02-27T06:25:40.194Z,59.41
2023-02-27T06:28:29.605Z,59.47
2023-02-27T06:31:21.830Z,59.28
2023-02-27T06:34:11.137Z,59.08
2023-02-27T06:37:04.161Z,59.16
2023-02-27T06:39:53.644Z,59.44
2023-02-27T06:42:44.312Z,59.46
2023-02-27T06:45:33.540Z,59.27
2023-02-27T06:48:22.749Z,59.06
2023-02-27T06:51:12.250Z,58.95
2023-02-27T06:54:10.847Z,58.89
2023-02-27T06:57:07.308Z,59.33
2023-02-27T06:59:59.724Z,59.30
2023-02-27T07:02:49.034Z,59.52
2023-02-27T07:05:38.322Z,59.40
2023-02-27T07:08:27.668Z,59.11
2023-02-27T07:11:21.062Z,59.30
2023-02-27T07:14:10.499Z,59.41
2023-02-27T07:17:03.430Z,59.07
2023-02-27T07:19:52.748Z,59.23
2023-02-27T07:22:42.829Z,59.53
2023-02-27T07:25:32.136Z,59.44
2023-02-27T07:28:25.335Z,59.51
2023-02-27T07:31:15.095Z,59.80
2023-02-27T07:34:04.834Z,59.49
2023-02-27T07:36:54.020Z,59.33
2023-02-27T07:39:43.466Z,59.77
2023-02-27T07:42:32.890Z,59.93
2023-02-27T07:45:27.942Z,59.91
2023-02-27T07:48:17.279Z,59.94
2023-02-27T07:51:07.451Z,60.41
2023-02-27T07:53:58.982Z,60.46
2023-02-27T07:56:48.431Z,60.76
2023-02-27T07:59:41.325Z,60.74
2023-02-27T08:02:38.513Z,60.45
2023-02-27T08:05:29.809Z,60.00
2023-02-27T08:08:19.036Z,59.63
2023-02-27T08:11:11.047Z,59.90
2023-02-27T08:14:01.784Z,59.69
2023-02-27T08:16:51.573Z,59.32
2023-02-27T08:19:42.329Z,59.66
2023-02-27T08:22:32.711Z,59.63
2023-02-27T08:25:25.291Z,59.65
2023-02-27T08:28:14.680Z,59.49
2023-02-27T08:31:03.931Z,59.66
2023-02-27T08:34:01.011Z,59.62
2023-02-27T08:36:55.923Z,59.53
2023-02-27T08:39:45.184Z,59.61
2023-02-27T08:42:34.757Z,59.68
2023-02-27T08:45:24.171Z,58.84
2023-02-27T08:48:15.931Z,58.63
2023-02-27T08:51:05.338Z,58.46
2023-02-27T08:53:58.971Z,58.16
2023-02-27T08:56:49.058Z,57.84
2023-02-27T08:59:38.236Z,57.94
2023-02-27T09:02:31.522Z,58.25
2023-02-27T09:05:23.010Z,58.21
2023-02-27T09:08:12.226Z,58.24
2023-02-27T09:11:03.133Z,58.10
2023-02-27T09:13:53.030Z,57.58
2023-02-27T09:16:42.454Z,57.85
2023-02-27T09:19:32.055Z,57.59
2023-02-27T09:22:21.436Z,57.03
2023-02-27T09:25:11.237Z,56.93
2023-02-27T09:28:01.905Z,55.89
2023-02-27T09:30:51.255Z,55.91
2023-02-27T09:33:40.727Z,55.79
2023-02-27T09:36:30.475Z,55.13
2023-02-27T09:39:19.870Z,55.19
2023-02-27T09:42:18.071Z,55.15
2023-02-27T09:45:17.705Z,55.28
2023-02-27T09:48:17.076Z,55.16
2023-02-27T09:51:06.906Z,55.61
2023-02-27T09:54:00.882Z,55.30
2023-02-27T09:56:55.641Z,54.87
2023-02-27T09:59:50.638Z,54.78
2023-02-27T10:02:55.672Z,54.07
2023-02-27T10:05:52.655Z,53.96
2023-02-27T10:08:53.671Z,53.82
2023-02-27T10:11:58.481Z,55.11
2023-02-27T10:14:51.668Z,57.46
2023-02-27T10:17:43.251Z,57.97
2023-02-27T10:20:38.497Z,58.76
2023-02-27T10:23:38.630Z,59.30
2023-02-27T10:26:33.121Z,59.65
2023-02-27T10:29:30.740Z,59.90
2023-02-27T10:32:24.099Z,61.19
2023-02-27T10:35:31.315Z,61.91
2023-02-27T10:38:33.242Z,62.28
2023-02-27T10:41:24.297Z,62.37
2023-02-27T10:44:18.766Z,61.91
2023-02-27T10:47:08.053Z,63.66
2023-02-27T10:50:00.360Z,64.10
2023-02-27T10:52:54.583Z,65.49
2023-02-27T10:55:58.666Z,65.88
2023-02-27T10:58:48.253Z,65.80
2023-02-27T11:01:46.057Z,65.76
2023-02-27T11:04:38.650Z,65.02
2023-02-27T11:07:32.472Z,64.74
2023-02-27T11:10:24.460Z,64.04
2023-02-27T11:13:22.805Z,64.22
2023-02-27T11:16:15.871Z,64.38
2023-02-27T11:19:24.871Z,64.26
2023-02-27T11:22:18.722Z,64.28
2023-02-27T11:25:24.504Z,64.57
2023-02-27T11:28:23.816Z,64.60
2023-02-27T11:31:20.397Z,63.98
2023-02-27T11:34:20.608Z,63.74
2023-02-27T11:37:23.480Z,61.63
2023-02-27T11:40:19.597Z,61.57
2023-02-27T11:43:21.224Z,59.00
2023-02-27T11:46:46.627Z,58.13
2023-02-27T11:49:34.921Z,58.83
2023-02-27T11:52:33.274Z,58.86
2023-02-27T11:55:28.036Z,57.56
2023-02-27T11:58:23.233Z,56.44
2023-02-27T12:01:24.993Z,54.39
2023-02-27T12:04:22.094Z,51.96
2023-02-27T12:07:22.212Z,50.41
2023-02-27T12:10:19.755Z,50.47
2023-02-27T12:13:18.028Z,51.28
2023-02-27T12:16:18.693Z,52.66
2023-02-27T12:19:17.508Z,53.91
2023-02-27T12:22:14.851Z,56.41
2023-02-27T12:25:12.092Z,57.87
2023-02-27T12:28:10.000Z,59.41
2023-02-27T12:31:32.428Z,60.62
2023-02-27T12:34:29.460Z,61.33
2023-02-27T12:37:24.912Z,62.14
2023-02-27T12:40:18.622Z,62.65
2023-02-27T12:43:28.283Z,63.26
2023-02-27T12:46:36.971Z,61.83
2023-02-27T12:49:40.567Z,60.28
2023-02-27T12:52:46.313Z,60.53
2023-02-27T12:55:42.877Z,59.89
2023-02-27T12:58:43.732Z,58.31
2023-02-27T13:01:47.709Z,55.99
2023-02-27T13:04:47.263Z,51.60
2023-02-27T13:07:46.386Z,49.47
2023-02-27T13:10:43.163Z,49.74
2023-02-27T13:13:39.946Z,50.46
2023-02-27T13:16:36.728Z,51.70
2023-02-27T13:19:33.480Z,53.24
2023-02-27T13:22:37.558Z,54.95
2023-02-27T13:25:28.001Z,56.21
2023-02-27T13:28:21.247Z,57.06
2023-02-27T13:31:24.502Z,58.09
2023-02-27T13:34:25.424Z,58.44
2023-02-27T13:37:16.232Z,58.80
2023-02-27T13:40:30.973Z,58.42
2023-02-27T13:43:46.492Z,58.49
2023-02-27T13:46:40.570Z,58.22
2023-02-27T13:49:31.351Z,57.91
2023-02-27T13:52:30.477Z,58.40
2023-02-27T13:55:31.202Z,60.17
2023-02-27T13:58:25.546Z,60.45
2023-02-27T14:01:23.805Z,61.39
2023-02-27T14:04:19.940Z,62.13
2023-02-27T14:07:15.278Z,62.66
2023-02-27T14:10:11.659Z,63.54
2023-02-27T14:13:03.755Z,63.89
2023-02-27T14:16:00.441Z,64.08
2023-02-27T14:18:57.768Z,64.11
2023-02-27T14:22:01.259Z,64.79
2023-02-27T14:25:03.667Z,65.00
2023-02-27T14:27:59.041Z,64.93
2023-02-27T14:30:55.601Z,65.18
2023-02-27T14:33:50.862Z,65.69
2023-02-27T14:36:47.634Z,65.67
2023-02-27T14:39:39.407Z,65.78
2023-02-27T14:42:46.047Z,64.80
2023-02-27T14:45:36.945Z,63.13
2023-02-27T14:48:29.964Z,59.55
2023-02-27T14:51:19.701Z,57.18
2023-02-27T14:54:16.481Z,53.05
2023-02-27T14:57:08.487Z,53.26
2023-02-27T14:59:57.819Z,53.72
2023-02-27T15:02:48.472Z,52.56
2023-02-27T15:05:39.522Z,53.74
2023-02-27T15:08:33.310Z,54.09
2023-02-27T15:11:24.604Z,53.93
2023-02-27T15:14:22.630Z,54.03
2023-02-27T15:17:24.243Z,54.41
2023-02-27T15:20:30.011Z,54.47
2023-02-27T15:23:26.980Z,54.33
2023-02-27T15:26:16.275Z,53.72
2023-02-27T15:29:08.183Z,53.78
2023-02-27T15:31:57.435Z,54.48
2023-02-27T15:34:48.141Z,53.84
2023-02-27T15:37:40.170Z,53.85
2023-02-27T15:40:31.969Z,53.66
2023-02-27T15:43:22.973Z,53.95
2023-02-27T15:46:12.304Z,53.95
2023-02-27T15:49:01.678Z,54.39
2023-02-27T15:52:01.484Z,54.84
2023-02-27T15:54:54.824Z,54.92
2023-02-27T15:58:00.762Z,54.89
2023-02-27T16:01:00.871Z,55.64
2023-02-27T16:03:53.590Z,55.61
2023-02-27T16:06:48.680Z,55.74
2023-02-27T16:09:39.260Z,56.00
2023-02-27T16:12:36.951Z,56.33
2023-02-27T16:15:32.558Z,56.21
2023-02-27T16:18:31.901Z,56.00
2023-02-27T16:21:22.971Z,56.27
2023-02-27T16:24:22.926Z,56.25
2023-02-27T16:27:20.907Z,56.56
2023-02-27T16:30:17.233Z,56.67
2023-02-27T16:33:06.846Z,57.05
2023-02-27T16:36:16.947Z,57.06
2023-02-27T16:39:08.468Z,57.08
2023-02-27T16:41:59.951Z,57.42
2023-02-27T16:44:49.190Z,57.51
2023-02-27T16:47:39.836Z,57.78
2023-02-27T16:50:32.927Z,58.30
2023-02-27T16:53:22.362Z,58.30
2023-02-27T16:56:13.094Z,58.85
2023-02-27T16:59:03.651Z,59.16
2023-02-27T17:01:53.378Z,59.03
2023-02-27T17:04:47.718Z,59.19
2023-02-27T17:07:37.672Z,58.98
2023-02-27T17:10:27.396Z,59.10
2023-02-27T17:13:17.420Z,58.71
2023-02-27T17:16:08.445Z,58.81
2023-02-27T17:18:57.646Z,58.73
2023-02-27T17:21:48.292Z,58.78
2023-02-27T17:24:38.784Z,58.54
2023-02-27T17:27:28.162Z,58.21
2023-02-27T17:30:18.755Z,57.96
2023-02-27T17:33:08.131Z,57.27
2023-02-27T17:36:03.723Z,56.20
2023-02-27T17:38:57.896Z,55.23
2023-02-27T17:41:48.265Z,54.82
2023-02-27T17:44:37.896Z,55.17
2023-02-27T17:47:27.178Z,55.58
2023-02-27T17:50:17.036Z,56.18
2023-02-27T17:53:06.277Z,56.26
2023-02-27T17:55:56.945Z,56.03
2023-02-27T17:58:46.227Z,55.78
2023-02-27T18:01:36.817Z,55.44
2023-02-27T18:04:26.382Z,55.45
2023-02-27T18:07:15.646Z,54.88
2023-02-27T18:10:06.602Z,54.62
2023-02-27T18:12:57.243Z,54.67
2023-02-27T18:15:47.507Z,54.65
2023-02-27T18:18:37.679Z,54.76
2023-02-27T18:21:27.293Z,54.81
2023-02-27T18:24:17.845Z,54.79
2023-02-27T18:27:07.069Z,54.83
2023-02-27T18:29:59.438Z,54.89
2023-02-27T18:32:48.797Z,54.84
2023-02-27T18:35:38.181Z,55.10
2023-02-27T18:38:28.086Z,55.46
2023-02-27T18:41:17.375Z,55.47
2023-02-27T18:44:08.067Z,55.62
2023-02-27T18:46:58.744Z,55.81
2023-02-27T18:49:48.193Z,56.08
2023-02-27T18:52:38.613Z,56.57
2023-02-27T18:55:28.624Z,56.97
2023-02-27T18:58:17.837Z,57.12
2023-02-27T19:01:08.104Z,57.54
2023-02-27T19:04:03.918Z,57.79
2023-02-27T19:06:53.515Z,57.80
2023-02-27T19:09:43.189Z,57.98
2023-02-27T19:12:32.686Z,58.13
2023-02-27T19:15:22.014Z,58.41
2023-02-27T19:18:11.300Z,58.48
2023-02-27T19:21:06.749Z,59.09
2023-02-27T19:23:56.530Z,58.85
2023-02-27T19:26:47.291Z,58.98
2023-02-27T19:29:36.644Z,59.17
2023-02-27T19:32:26.019Z,59.29
2023-02-27T19:35:17.899Z,59.42
2023-02-27T19:38:08.668Z,59.88
2023-02-27T19:41:03.315Z,59.96
2023-02-27T19:43:53.665Z,60.06
2023-02-27T19:46:43.618Z,60.48
2023-02-27T19:49:33.544Z,60.50
2023-02-27T19:52:22.995Z,60.63
2023-02-27T19:55:13.991Z,60.55
2023-02-27T19:58:03.304Z,60.53
2023-02-27T20:00:52.711Z,60.98
2023-02-27T20:03:43.812Z,61.10
2023-02-27T20:06:42.367Z,61.37
2023-02-27T20:09:34.523Z,61.36
2023-02-27T20:12:26.880Z,61.49
2023-02-27T20:15:16.271Z,61.60
2023-02-27T20:18:05.654Z,62.12
2023-02-27T20:21:03.729Z,61.97
2023-02-27T20:23:53.534Z,62.44
2023-02-27T20:26:46.191Z,62.52
2023-02-27T20:29:37.088Z,62.71
2023-02-27T20:32:26.840Z,63.01
2023-02-27T20:35:16.999Z,63.51
2023-02-27T20:38:06.854Z,63.53
2023-02-27T20:40:59.222Z,63.61
2023-02-27T20:43:48.442Z,64.15
2023-02-27T20:46:41.586Z,64.15
2023-02-27T20:49:30.529Z,64.48
2023-02-27T20:52:19.760Z,64.19
2023-02-27T20:55:10.330Z,64.30
2023-02-27T20:57:59.756Z,64.74
2023-02-27T21:00:48.964Z,64.42
2023-02-27T21:03:42.478Z,64.66
2023-02-27T21:06:32.312Z,64.98
2023-02-27T21:09:22.390Z,64.97
2023-02-27T21:12:12.767Z,64.74
2023-02-27T21:15:01.983Z,65.08
2023-02-27T21:17:51.330Z,65.14
2023-02-27T21:20:43.746Z,65.21
2023-02-27T21:23:33.933Z,65.21
2023-02-27T21:26:26.326Z,65.22
2023-02-27T21:29:19.019Z,65.00
2023-02-27T21:32:08.362Z,65.17
2023-02-27T21:34:57.722Z,65.09
2023-02-27T21:37:49.243Z,65.13
2023-02-27T21:40:38.537Z,65.28
2023-02-27T21:43:27.838Z,65.04
2023-02-27T21:46:17.327Z,65.20
2023-02-27T21:49:06.996Z,65.01
2023-02-27T21:51:57.160Z,65.08
2023-02-27T21:54:47.870Z,65.30
2023-02-27T21:57:38.256Z,65.04
2023-02-27T22:00:29.421Z,65.22
2023-02-27T22:03:19.074Z,65.12
2023-02-27T22:06:09.342Z,65.17
2023-02-27T22:09:01.448Z,65.09
2023-02-27T22:11:52.187Z,65.25
2023-02-27T22:14:43.413Z,65.21
2023-02-27T22:17:32.774Z,65.33
2023-02-27T22:20:22.341Z,65.21
2023-02-27T22:23:11.696Z,65.14
2023-02-27T22:26:02.483Z,65.28
2023-02-27T22:28:55.801Z,65.23
2023-02-27T22:31:45.994Z,65.36
2023-02-27T22:34:35.613Z,65.42
2023-02-27T22:37:25.403Z,65.27
2023-02-27T22:40:16.490Z,65.43
2023-02-27T22:43:06.214Z,65.41
2023-02-27T22:45:58.308Z,65.41
2023-02-27T22:48:47.501Z,65.30
2023-02-27T22:51:37.324Z,65.65
2023-02-27T22:54:26.490Z,65.36
2023-02-27T22:57:15.876Z,65.47
2023-02-27T23:00:07.130Z,65.33
2023-02-27T23:02:57.849Z,65.27
2023-02-27T23:05:48.034Z,65.35
2023-02-27T23:08:38.172Z,65.15
2023-02-27T23:11:28.152Z,65.40
2023-02-27T23:14:18.044Z,65.24
2023-02-27T23:17:07.359Z,65.27
2023-02-27T23:19:58.075Z,65.39
2023-02-27T23:22:47.613Z,65.29
2023-02-27T23:25:38.931Z,65.24
2023-02-27T23:28:28.217Z,65.42
2023-02-27T23:31:17.978Z,65.52
2023-02-27T23:34:08.113Z,65.63
2023-02-27T23:36:58.718Z,65.67
2023-02-27T23:39:47.998Z,65.79
2023-02-27T23:42:37.205Z,65.60
2023-02-27T23:45:26.596Z,65.90
2023-02-27T23:48:15.915Z,66.13
2023-02-27T23:51:07.972Z,65.90
2023-02-27T23:53:58.706Z,66.12
2023-02-27T23:56:49.436Z,66.17
2023-02-27T23:59:38.777Z,66.12
